Terminal Aerodrome Forecast
Issued by NWS

Home | Current Version | Previous Version | Text Only | Print | Product List | Glossary On
Versions: 1 2 3 4 5 6 7 8 9 10 11 12 13 14 15 16 17 18 19 20 21 22 23 24 25 26
000
FTUS44 KOUN 011122
TAFPNC
TAF
KPNC 011122Z 0112/0212 16012KT P6SM SCT080 BKN120 PROB30 0200/0206
      5SM -TSRA OVC050CB
     FM020600 17011G19KT P6SM OVC060
      TEMPO 0206/0210 3SM TSRA OVC040CB=

USA.gov is the U.S. government's official web portal to all federal, state and local government web resources and services.